Kezdőlap
METAR-TAF:

METAR-TAF

Repülőterek :

Sanghaj-Putungi nemzetközi repülőtér

Sanghaj-Pudong, Kína

földrajzi szélesség: 31-07N, földrajzi hosszúság: 121-46E, magasság: 4 m

Jelenlegi meteorológiai megfigyelések

A jelentés 22 perccel ezelõtt készült, 21:30 UTC
Déli szél 12 kt
Hőmérséklet 29°C
Páratartalom 79%
Légköri nyomás 1006 hPa
Látótávolság 10 km, vagy több
felhőtlen 1500 m magasságban, és nincs gomolyfelhõ

METAR: ZSPD 212130Z 18006MPS CAVOK 29/25 Q1006 NOSIG

Idő: 05:52 (21:52 UTC)

Előrejelzés

A jelentés 6 órával és 48 perccel ezelõtt készült, 15:04 UTC
Az előrejelzés 21-én 18 óra UTC és 22-én 24 óra UTC között érvényes
Dél-délkeleti szél 12 kt
Látótávolság: 8000 m
Szórványos felhőzet 2000 lábon

TAF: ZSPD 211504Z 2118/2224 16006MPS 8000 SCT020 TX37/2206Z TN29/2121Z TN29/2221Z

Meteorológiai megfigyelések és előrejelzések több, mint 4000 repülőtéren (METAR és TAF jelentéseket).

A térképen piros és sárga pontok jelzik az elérhető meteorológiai állomásokat.

Mozgassa az egeret a pont fölött, hogy megjelenjen az állomás neve.

Azután kattintson az időjárási megfigyelések és előrejelzések megtekintéséhez.

A térkép megváltoztatása: kattintson a fekete keresztel jelölt zöld gombra ráközelítéshez, a vonallal jelölt zöld gombra távolításhoz, vagy a zöld nyilakra a szomszédos térképek eléréséhez.


METAR-TAF: